Time;durP1;ratioP1;P1;durP2;ratioP2;P2;SDS_P1;SDS_P2;PMS_P1;PMS_P2;Temp;Humidity;BMP_temperature;BMP_pressure;BME280_temperature;BME280_humidity;BME280_pressure;Samples;Min_cycle;Max_cycle;Signal;HPM_P1;HPM_P2
2022/11/05 00:10:05;;;;;;;7.33;4.87;;;7.90;99.90;;;;;;4954310;29;20177;-89
2022/11/05 00:18:00;;;;;;;8.63;4.85;;;7.80;99.90;;;;;;4972992;28;20348;-88
2022/11/05 00:20:26;;;;;;;9.87;4.97;;;7.90;99.90;;;;;;4971898;28;20204;-89
2022/11/05 00:25:54;;;;;;;9.47;5.00;;;7.80;99.90;;;;;;4974988;28;20203;-89
2022/11/05 00:28:19;;;;;;;9.83;4.80;;;7.80;99.90;;;;;;4975389;28;20672;-89
2022/11/05 00:30:45;;;;;;;10.70;5.10;;;7.80;99.90;;;;;;4975678;28;20188;-88
2022/11/05 00:33:16;;;;;;;9.10;5.20;;;7.80;99.90;;;;;;4975637;28;20177;-89
2022/11/05 00:35:42;;;;;;;10.07;5.50;;;7.70;99.90;;;;;;4975456;28;20187;-89
2022/11/05 00:38:08;;;;;;;9.07;5.00;;;7.70;99.90;;;;;;4975196;28;20303;-88
2022/11/05 00:40:34;;;;;;;7.53;4.90;;;7.70;99.90;;;;;;4991464;28;20240;-89
2022/11/05 00:45:44;;;;;;;9.03;5.30;;;7.70;99.90;;;;;;4977316;28;20247;-89
2022/11/05 00:50:54;;;;;;;9.40;5.20;;;7.70;99.90;;;;;;4995868;28;20179;-88
2022/11/05 00:53:22;;;;;;;10.03;4.90;;;7.60;99.90;;;;;;4994320;28;20180;-90
2022/11/05 00:55:48;;;;;;;8.30;4.90;;;7.60;99.90;;;;;;4994531;28;20271;-88
2022/11/05 00:58:19;;;;;;;8.90;5.00;;;7.50;99.90;;;;;;4994519;28;20755;-89
2022/11/05 01:00:51;;;;;;;12.60;5.77;;;7.50;99.90;;;;;;4994593;28;20266;-89
2022/11/05 01:03:19;;;;;;;10.77;5.33;;;7.50;99.90;;;;;;4994364;28;20168;-88
2022/11/05 01:05:48;;;;;;;13.27;5.80;;;7.50;99.90;;;;;;4994330;28;20180;-89
2022/11/05 01:08:15;;;;;;;8.43;4.93;;;7.50;99.90;;;;;;4994417;28;20202;-89
2022/11/05 01:10:54;;;;;;;8.57;5.47;;;7.50;99.90;;;;;;4994298;28;20180;-88
2022/11/05 01:13:23;;;;;;;12.17;5.70;;;7.50;99.90;;;;;;4993933;28;20176;-89
2022/11/05 01:15:49;;;;;;;11.80;5.03;;;7.50;99.90;;;;;;4992808;28;20184;-89
2022/11/05 01:18:16;;;;;;;10.23;5.40;;;7.50;99.90;;;;;;4974530;28;20200;-88
2022/11/05 01:20:43;;;;;;;8.77;4.50;;;7.40;99.90;;;;;;4974712;28;20266;-89
2022/11/05 01:23:08;;;;;;;14.80;5.00;;;7.40;99.90;;;;;;4974535;28;20183;-88
2022/11/05 01:25:34;;;;;;;9.87;5.60;;;7.40;99.90;;;;;;4974964;28;20267;-89
2022/11/05 01:28:01;;;;;;;11.83;4.97;;;7.30;99.90;;;;;;4974521;28;20208;-88
2022/11/05 01:30:28;;;;;;;10.17;5.07;;;7.30;99.90;;;;;;4975882;28;20168;-89
2022/11/05 01:32:53;;;;;;;13.97;5.70;;;7.30;99.90;;;;;;4974473;28;20176;-88
2022/11/05 01:35:19;;;;;;;11.30;5.90;;;7.30;99.90;;;;;;4974526;28;20184;-89
2022/11/05 01:37:45;;;;;;;13.37;5.77;;;7.30;99.90;;;;;;4973818;28;20236;-88
2022/11/05 01:40:20;;;;;;;7.50;5.40;;;7.30;99.90;;;;;;4975347;28;20201;-89
2022/11/05 01:42:46;;;;;;;13.03;5.47;;;7.30;99.90;;;;;;4974392;28;20539;-89
2022/11/05 01:45:30;;;;;;;9.47;6.07;;;7.40;99.90;;;;;;4974545;28;20230;-88
2022/11/05 01:48:06;;;;;;;11.70;5.63;;;7.30;99.90;;;;;;4992267;28;20678;-88
2022/11/05 01:50:54;;;;;;;11.00;6.10;;;7.30;99.90;;;;;;4993696;28;20183;-89
2022/11/05 01:53:24;;;;;;;9.97;5.80;;;7.30;99.90;;;;;;4993158;28;20216;-88
2022/11/05 01:56:23;;;;;;;10.63;6.27;;;7.20;99.90;;;;;;4993314;28;20184;-88
2022/11/05 01:58:59;;;;;;;9.93;5.73;;;7.20;99.90;;;;;;4990526;28;20195;-88
2022/11/05 02:01:24;;;;;;;14.13;6.00;;;7.20;99.90;;;;;;4993335;28;20215;-87
2022/11/05 02:03:56;;;;;;;12.00;6.57;;;7.20;99.90;;;;;;4993383;28;20180;-88
2022/11/05 02:06:21;;;;;;;12.83;6.20;;;7.20;99.90;;;;;;4993286;28;20172;-88
2022/11/05 02:08:54;;;;;;;14.23;6.23;;;7.20;99.90;;;;;;4993036;28;20191;-88
2022/11/05 02:11:21;;;;;;;10.17;5.60;;;7.10;99.90;;;;;;4993028;28;20191;-88
2022/11/05 02:13:47;;;;;;;12.80;6.57;;;7.10;99.90;;;;;;4994212;28;20165;-88
2022/11/05 02:16:38;;;;;;;11.10;6.20;;;7.10;99.90;;;;;;4992706;28;20179;-88
2022/11/05 02:19:25;;;;;;;11.33;5.73;;;7.10;99.90;;;;;;4992794;28;20238;-87
2022/11/05 02:22:12;;;;;;;12.20;6.20;;;7.00;99.90;;;;;;4993898;28;20164;-87
2022/11/05 02:24:56;;;;;;;14.70;6.03;;;7.00;99.90;;;;;;4993018;28;20238;-88
2022/11/05 02:27:50;;;;;;;12.33;5.97;;;7.00;99.90;;;;;;4983867;28;20209;-88
2022/11/05 02:30:28;;;;;;;12.27;6.23;;;6.90;99.90;;;;;;4974532;28;20183;-87
2022/11/05 02:33:21;;;;;;;10.83;5.67;;;6.90;99.90;;;;;;4974666;28;20251;-87
2022/11/05 02:36:14;;;;;;;11.17;6.80;;;6.90;99.90;;;;;;4974203;28;20205;-87
2022/11/05 02:38:54;;;;;;;10.37;6.13;;;6.80;99.90;;;;;;4973137;28;20208;-88
2022/11/05 02:41:28;;;;;;;10.40;6.50;;;6.80;99.90;;;;;;4989499;28;20247;-89
2022/11/05 02:44:22;;;;;;;11.57;6.87;;;6.90;99.90;;;;;;4974593;28;20175;-88
2022/11/05 02:46:59;;;;;;;16.23;7.03;;;6.90;99.90;;;;;;4973026;28;20212;-87
2022/11/05 02:49:47;;;;;;;13.20;6.77;;;6.90;99.90;;;;;;4988977;28;20234;-88
2022/11/05 02:52:29;;;;;;;12.57;6.93;;;6.90;99.90;;;;;;4974335;28;20199;-88
2022/11/05 02:55:01;;;;;;;13.20;6.97;;;6.80;99.90;;;;;;4989205;28;20176;-88
2022/11/05 02:57:29;;;;;;;14.13;7.73;;;6.90;99.90;;;;;;4999237;28;20258;-88
2022/11/05 03:00:39;;;;;;;12.43;7.33;;;6.80;99.90;;;;;;4992528;28;20204;-88
2022/11/05 03:03:12;;;;;;;11.90;6.90;;;6.80;99.90;;;;;;4992301;28;20207;-88
2022/11/05 03:06:02;;;;;;;13.20;6.83;;;6.80;99.90;;;;;;4992285;28;20196;-88
2022/11/05 03:08:42;;;;;;;13.10;7.07;;;6.80;99.90;;;;;;4943662;28;20212;-87
2022/11/05 03:11:17;;;;;;;11.60;6.90;;;6.80;99.90;;;;;;4992252;28;20211;-88
2022/11/05 03:14:07;;;;;;;16.10;6.63;;;6.70;99.90;;;;;;4992051;28;20179;-88
2022/11/05 03:16:41;;;;;;;9.83;6.87;;;6.70;99.90;;;;;;4992030;28;20208;-88
2022/11/05 03:19:29;;;;;;;14.80;8.00;;;6.60;99.90;;;;;;4992086;28;20179;-87
2022/11/05 03:22:09;;;;;;;13.03;6.70;;;6.60;99.90;;;;;;4991853;28;20179;-87
2022/11/05 03:24:40;;;;;;;12.10;7.00;;;6.60;99.90;;;;;;4991993;28;20631;-88
2022/11/05 03:27:11;;;;;;;16.07;7.77;;;6.60;99.90;;;;;;4991903;28;20205;-88
2022/11/05 03:30:00;;;;;;;12.50;7.47;;;6.60;99.90;;;;;;4993283;28;20178;-87
2022/11/05 03:32:31;;;;;;;12.93;7.33;;;6.60;99.90;;;;;;4992009;28;20175;-88
2022/11/05 03:35:06;;;;;;;11.10;7.67;;;6.60;99.90;;;;;;4991849;28;20211;-87
2022/11/05 03:37:36;;;;;;;18.07;7.47;;;6.60;99.90;;;;;;4991580;28;20231;-88
2022/11/05 03:40:07;;;;;;;15.83;7.67;;;6.50;99.90;;;;;;4993242;28;20295;-88
2022/11/05 03:42:37;;;;;;;13.63;7.57;;;6.40;99.90;;;;;;4992014;28;20172;-88
2022/11/05 03:45:19;;;;;;;15.50;8.17;;;6.50;99.90;;;;;;4991894;28;20242;-87
2022/11/05 03:47:49;;;;;;;11.83;6.73;;;6.40;99.90;;;;;;4991932;28;20200;-88
2022/11/05 03:50:52;;;;;;;12.37;7.13;;;6.40;99.90;;;;;;4991775;28;20180;-88
2022/11/05 03:53:28;;;;;;;16.00;7.90;;;6.40;99.90;;;;;;4991970;28;20211;-88
2022/11/05 03:56:00;;;;;;;16.73;8.27;;;6.30;99.90;;;;;;4991708;28;20186;-88
2022/11/05 03:58:27;;;;;;;13.97;7.40;;;6.30;99.90;;;;;;4991802;28;20303;-88
2022/11/05 04:00:53;;;;;;;15.13;7.27;;;6.30;99.90;;;;;;4995235;28;20208;-88
2022/11/05 04:03:19;;;;;;;12.37;7.43;;;6.30;99.90;;;;;;4995490;28;20223;-88
2022/11/05 04:13:22;;;;;;;14.73;7.10;;;6.30;99.90;;;;;;4995489;28;20176;-87
2022/11/05 04:13:59;;;;;;;16.30;7.50;;;6.20;99.90;;;;;;4996705;28;20238;-88
2022/11/05 04:19:08;;;;;;;14.57;8.17;;;6.10;99.90;;;;;;4996803;28;20647;-87
2022/11/05 04:24:18;;;;;;;15.80;8.33;;;6.20;99.90;;;;;;4996518;28;20176;-88
2022/11/05 04:26:44;;;;;;;15.17;7.77;;;6.20;99.90;;;;;;4990769;28;20200;-88
2022/11/05 04:31:55;;;;;;;15.83;7.60;;;6.20;99.90;;;;;;4976845;28;20171;-87
2022/11/05 04:34:21;;;;;;;13.03;6.70;;;6.10;99.90;;;;;;4991789;28;20307;-88
2022/11/05 04:36:51;;;;;;;13.37;6.90;;;6.10;99.90;;;;;;4991204;28;20319;-87
2022/11/05 04:39:18;;;;;;;13.10;7.53;;;6.00;99.90;;;;;;4991767;28;20184;-88
2022/11/05 04:41:47;;;;;;;9.60;6.40;;;5.90;99.90;;;;;;4991584;28;20712;-88
2022/11/05 04:44:14;;;;;;;12.90;7.20;;;5.90;99.90;;;;;;4991822;28;20177;-87
2022/11/05 04:46:40;;;;;;;11.30;7.23;;;5.80;99.90;;;;;;4991332;28;20232;-87
2022/11/05 04:49:06;;;;;;;13.60;7.27;;;5.80;99.90;;;;;;4976514;28;20216;-88
2022/11/05 04:51:32;;;;;;;15.70;8.20;;;5.80;99.90;;;;;;4991609;28;20173;-88
2022/11/05 04:53:57;;;;;;;11.83;7.23;;;5.80;99.90;;;;;;4991820;28;20826;-88
2022/11/05 04:56:24;;;;;;;14.00;7.10;;;5.80;99.90;;;;;;4991316;28;20597;-87
2022/11/05 04:58:50;;;;;;;11.70;7.13;;;5.90;99.90;;;;;;4975198;28;20655;-88
2022/11/05 05:01:19;;;;;;;13.80;7.30;;;5.90;99.90;;;;;;4974999;28;20291;-88
2022/11/05 05:03:49;;;;;;;16.40;7.17;;;5.90;99.90;;;;;;4975059;28;20587;-88
2022/11/05 05:06:16;;;;;;;10.80;6.93;;;6.00;99.90;;;;;;4974676;28;20175;-88
2022/11/05 05:08:42;;;;;;;10.17;6.43;;;6.00;99.90;;;;;;4974780;28;20235;-87
2022/11/05 05:11:11;;;;;;;15.57;7.80;;;6.10;99.90;;;;;;4974269;28;20626;-88
2022/11/05 05:13:37;;;;;;;14.03;6.90;;;6.00;99.90;;;;;;4974675;28;20180;-88
2022/11/05 05:16:19;;;;;;;11.63;6.97;;;6.00;99.90;;;;;;4974952;28;20184;-87
2022/11/05 05:18:45;;;;;;;12.33;7.30;;;6.00;99.90;;;;;;4974584;28;20203;-88
2022/11/05 05:23:56;;;;;;;10.80;6.63;;;6.00;99.90;;;;;;4975909;28;20219;-88
2022/11/05 05:26:22;;;;;;;15.30;6.77;;;6.00;99.90;;;;;;4974641;28;20173;-87
2022/11/05 05:28:48;;;;;;;11.83;6.20;;;6.00;99.90;;;;;;4974651;28;20196;-88
2022/11/05 05:31:13;;;;;;;14.73;6.83;;;6.00;99.90;;;;;;4975810;28;20165;-88
2022/11/05 05:33:39;;;;;;;10.77;6.40;;;6.00;99.90;;;;;;4974319;28;20625;-88
2022/11/05 05:36:06;;;;;;;12.97;6.43;;;5.90;99.90;;;;;;4990177;28;20231;-88
2022/11/05 05:38:32;;;;;;;13.60;6.77;;;5.80;99.90;;;;;;4974328;28;20624;-88
2022/11/05 05:40:59;;;;;;;10.67;6.10;;;5.80;99.90;;;;;;4974250;28;20266;-89
2022/11/05 05:43:32;;;;;;;10.53;6.33;;;5.80;99.90;;;;;;4990405;28;20188;-87
2022/11/05 05:46:02;;;;;;;10.13;5.53;;;5.80;99.90;;;;;;4975572;28;20169;-87
2022/11/05 05:48:28;;;;;;;11.40;5.60;;;5.80;99.90;;;;;;4975470;28;20205;-88
2022/11/05 05:50:54;;;;;;;8.70;5.60;;;5.80;99.90;;;;;;4975468;28;20171;-88
2022/11/05 05:53:19;;;;;;;9.43;5.33;;;5.80;99.90;;;;;;4975398;28;20260;-87
2022/11/05 05:55:45;;;;;;;15.10;6.27;;;5.80;99.90;;;;;;4974291;28;20183;-87
2022/11/05 05:58:11;;;;;;;18.50;5.90;;;5.80;99.90;;;;;;4990239;28;20668;-88
2022/11/05 06:00:37;;;;;;;9.27;5.00;;;5.80;99.90;;;;;;4993552;28;20238;-88
2022/11/05 06:03:05;;;;;;;9.40;5.43;;;5.80;99.90;;;;;;4993407;28;20580;-87
2022/11/05 06:05:31;;;;;;;9.37;5.20;;;5.70;99.90;;;;;;4974198;28;20545;-88
2022/11/05 06:07:58;;;;;;;13.37;5.30;;;5.70;99.90;;;;;;4987382;28;20679;-88
2022/11/05 06:10:24;;;;;;;10.27;5.47;;;5.80;99.90;;;;;;4975291;28;20264;-88
2022/11/05 06:12:50;;;;;;;8.13;5.33;;;5.80;99.90;;;;;;4974922;28;20173;-88
2022/11/05 06:15:16;;;;;;;11.17;4.77;;;5.80;99.90;;;;;;4973734;28;20187;-88
2022/11/05 06:17:46;;;;;;;9.30;5.13;;;5.80;99.90;;;;;;4973497;28;20240;-88
2022/11/05 06:20:12;;;;;;;10.00;4.97;;;5.80;99.90;;;;;;4989811;28;20212;-87
2022/11/05 06:22:38;;;;;;;9.40;5.13;;;5.70;99.90;;;;;;4972860;28;20276;-88
2022/11/05 06:25:05;;;;;;;9.63;5.07;;;5.80;99.90;;;;;;4973865;28;20208;-88
2022/11/05 06:27:31;;;;;;;13.43;5.30;;;5.80;99.90;;;;;;4973380;28;20204;-87
2022/11/05 06:29:57;;;;;;;11.87;4.73;;;5.80;99.90;;;;;;4973831;28;20552;-88
2022/11/05 06:32:23;;;;;;;12.00;5.00;;;5.80;99.90;;;;;;4974683;28;20173;-88
2022/11/05 06:34:49;;;;;;;12.37;5.23;;;5.80;99.90;;;;;;4973030;28;20651;-88
2022/11/05 06:37:15;;;;;;;12.17;4.97;;;5.80;99.90;;;;;;4972079;28;20775;-87
2022/11/05 06:39:41;;;;;;;8.07;4.83;;;5.80;99.90;;;;;;4972805;28;20261;-88
2022/11/05 06:42:07;;;;;;;12.90;5.37;;;5.80;99.90;;;;;;4972614;28;20296;-88
2022/11/05 06:44:38;;;;;;;10.20;5.10;;;5.80;99.90;;;;;;4989214;28;20220;-88
2022/11/05 06:47:04;;;;;;;9.33;4.83;;;5.80;99.90;;;;;;4982891;28;20215;-87
2022/11/05 06:49:29;;;;;;;13.37;5.10;;;5.80;99.90;;;;;;4992560;28;20179;-88
2022/11/05 06:51:56;;;;;;;8.87;4.90;;;5.80;99.90;;;;;;4992166;28;20211;-88
2022/11/05 06:54:23;;;;;;;11.93;6.00;;;5.80;99.90;;;;;;4993290;28;20168;-88
2022/11/05 06:56:48;;;;;;;8.50;4.73;;;5.80;99.90;;;;;;4991946;28;20212;-88
2022/11/05 06:59:14;;;;;;;11.67;5.47;;;5.80;99.90;;;;;;4991893;28;20186;-88
2022/11/05 07:01:41;;;;;;;10.80;5.00;;;5.90;99.90;;;;;;4993160;28;20161;-88
2022/11/05 07:04:07;;;;;;;9.60;5.60;;;5.90;99.90;;;;;;4991666;28;20579;-89
2022/11/05 07:06:33;;;;;;;13.63;5.50;;;5.90;99.90;;;;;;4991581;28;20207;-88
2022/11/05 07:08:58;;;;;;;8.77;4.87;;;5.90;99.90;;;;;;4952971;28;20597;-88
2022/11/05 07:11:26;;;;;;;8.87;5.30;;;6.00;99.90;;;;;;4952964;29;20177;-89
2022/11/05 07:13:52;;;;;;;8.23;5.27;;;6.00;99.90;;;;;;4954219;28;20248;-88
2022/11/05 07:16:17;;;;;;;11.33;5.73;;;6.00;99.90;;;;;;4972881;28;20279;-87
2022/11/05 07:18:43;;;;;;;11.83;5.90;;;6.00;99.90;;;;;;4988475;28;20231;-88
2022/11/05 07:21:25;;;;;;;11.40;5.40;;;6.00;99.90;;;;;;4988324;28;20196;-89
2022/11/05 07:23:51;;;;;;;12.50;5.83;;;6.10;99.90;;;;;;4972827;28;20165;-88
2022/11/05 07:26:32;;;;;;;11.60;5.57;;;6.10;99.90;;;;;;4971907;28;20235;-87
2022/11/05 07:28:58;;;;;;;12.53;5.90;;;6.10;99.90;;;;;;4973126;28;20192;-87
2022/11/05 07:31:24;;;;;;;14.80;5.77;;;6.20;99.90;;;;;;4971486;28;20180;-87
2022/11/05 07:33:49;;;;;;;10.30;5.53;;;6.20;99.90;;;;;;4972040;28;20190;-89
2022/11/05 07:36:15;;;;;;;14.20;6.37;;;6.20;99.90;;;;;;4975598;28;20235;-87
2022/11/05 07:38:41;;;;;;;10.60;5.43;;;6.20;99.90;;;;;;4975391;28;20184;-88
2022/11/05 07:41:11;;;;;;;10.33;5.47;;;6.30;99.90;;;;;;4975355;28;20220;-88
2022/11/05 07:43:37;;;;;;;19.17;6.80;;;6.30;99.90;;;;;;4976539;28;20164;-88
2022/11/05 07:46:03;;;;;;;10.97;5.60;;;6.40;99.90;;;;;;4975503;28;20181;-87
2022/11/05 07:48:29;;;;;;;15.23;6.27;;;6.40;99.90;;;;;;4986461;28;20680;-88
2022/11/05 07:50:55;;;;;;;11.27;6.07;;;6.40;99.90;;;;;;4975999;28;20188;-88
2022/11/05 07:53:20;;;;;;;11.93;6.10;;;6.50;99.90;;;;;;4984327;28;20177;-88
2022/11/05 07:55:46;;;;;;;12.50;6.43;;;6.50;99.90;;;;;;4991338;28;20192;-87
2022/11/05 07:58:13;;;;;;;12.00;6.30;;;6.60;99.90;;;;;;4991537;28;20208;-87
2022/11/05 08:00:39;;;;;;;13.00;6.00;;;6.70;99.90;;;;;;5001550;28;20211;-88
2022/11/05 08:03:10;;;;;;;17.00;6.17;;;6.80;99.90;;;;;;4994682;28;20266;-88
2022/11/05 08:05:39;;;;;;;17.87;6.47;;;6.90;99.90;;;;;;4969927;28;20220;-87
2022/11/05 08:08:07;;;;;;;12.40;6.37;;;6.90;99.90;;;;;;4962220;28;20208;-90
2022/11/05 08:10:33;;;;;;;11.67;5.90;;;7.00;99.90;;;;;;5000689;28;20184;-88
2022/11/05 08:13:01;;;;;;;19.30;5.93;;;7.10;99.90;;;;;;4994585;28;20655;-89
2022/11/05 08:15:27;;;;;;;14.53;6.50;;;7.10;99.90;;;;;;4977740;28;20188;-89
2022/11/05 08:18:02;;;;;;;11.07;6.07;;;7.20;99.90;;;;;;4975729;28;20212;-88
2022/11/05 08:20:28;;;;;;;13.57;6.57;;;7.20;99.90;;;;;;4975157;28;20719;-88
2022/11/05 08:22:54;;;;;;;18.97;7.03;;;7.30;99.90;;;;;;4986799;28;20183;-86
2022/11/05 08:25:20;;;;;;;14.80;6.20;;;7.30;99.90;;;;;;4994157;28;20724;-87
2022/11/05 08:27:47;;;;;;;12.47;5.70;;;7.40;99.90;;;;;;4991231;28;20319;-88
2022/11/05 08:30:13;;;;;;;13.20;5.77;;;7.40;99.90;;;;;;4976773;28;20201;-87
2022/11/05 08:32:39;;;;;;;13.57;6.10;;;7.50;99.90;;;;;;4975344;28;20593;-87
2022/11/05 08:35:05;;;;;;;16.80;5.93;;;7.50;99.90;;;;;;4993173;28;20282;-87
2022/11/05 08:37:31;;;;;;;14.40;5.70;;;7.60;99.90;;;;;;4987409;28;20594;-86
2022/11/05 08:39:57;;;;;;;16.57;5.63;;;7.70;99.90;;;;;;4976911;28;20212;-87
2022/11/05 08:42:23;;;;;;;11.63;5.07;;;7.70;99.90;;;;;;4987716;28;20629;-87
2022/11/05 08:44:48;;;;;;;12.17;5.57;;;7.80;99.90;;;;;;4986605;28;20176;-87
2022/11/05 08:47:14;;;;;;;12.47;5.13;;;7.80;99.90;;;;;;4975823;28;20299;-87
2022/11/05 08:49:40;;;;;;;14.80;6.30;;;7.90;99.90;;;;;;4990907;28;20235;-88
2022/11/05 08:52:06;;;;;;;16.47;5.80;;;8.00;99.90;;;;;;4989340;28;20220;-86
2022/11/05 08:54:38;;;;;;;14.17;5.57;;;8.00;99.90;;;;;;4989038;28;20641;-88
2022/11/05 08:57:04;;;;;;;13.50;5.77;;;8.10;99.90;;;;;;4974451;28;20211;-88
2022/11/05 08:59:30;;;;;;;11.63;5.10;;;8.10;99.90;;;;;;4990295;28;20212;-88
2022/11/05 09:01:56;;;;;;;14.70;6.30;;;8.10;99.90;;;;;;4990364;28;20715;-88
2022/11/05 09:04:22;;;;;;;13.80;5.43;;;8.20;99.90;;;;;;4990319;28;20598;-89
2022/11/05 09:06:48;;;;;;;11.90;5.60;;;8.20;99.90;;;;;;4990218;28;20734;-88
2022/11/05 09:09:13;;;;;;;12.90;5.10;;;8.30;99.90;;;;;;4990044;28;20227;-88
2022/11/05 09:11:39;;;;;;;13.50;5.23;;;8.40;99.90;;;;;;4989852;28;20227;-87
2022/11/05 09:14:05;;;;;;;15.93;5.57;;;8.50;99.90;;;;;;4989957;28;20629;-88
2022/11/05 09:16:35;;;;;;;13.80;5.78;;;8.50;99.90;;;;;;4988760;28;20295;-87
2022/11/05 09:19:03;;;;;;;13.50;5.23;;;8.50;99.90;;;;;;4971174;28;20193;-87
2022/11/05 09:21:29;;;;;;;11.63;5.27;;;8.50;99.90;;;;;;4970544;28;20244;-87
2022/11/05 09:23:55;;;;;;;11.90;4.90;;;8.60;99.90;;;;;;4970794;28;20188;-87
2022/11/05 09:26:21;;;;;;;16.07;6.00;;;8.60;99.90;;;;;;4970441;28;20545;-87
2022/11/05 09:28:47;;;;;;;12.00;4.87;;;8.60;99.90;;;;;;4970701;28;20170;-87
2022/11/05 09:31:14;;;;;;;13.97;5.03;;;8.70;99.90;;;;;;4970586;28;20181;-88
2022/11/05 09:33:40;;;;;;;17.83;5.53;;;8.80;99.90;;;;;;4970152;28;20172;-87
2022/11/05 09:36:07;;;;;;;15.83;5.70;;;8.90;99.90;;;;;;4970299;28;20225;-87
2022/11/05 09:38:36;;;;;;;13.80;5.07;;;9.00;99.90;;;;;;4971058;28;20630;-87
2022/11/05 09:41:22;;;;;;;10.50;5.33;;;9.00;99.90;;;;;;4970132;28;20577;-88
2022/11/05 09:43:59;;;;;;;10.40;4.80;;;9.00;99.90;;;;;;4970269;28;20538;-88
2022/11/05 09:46:28;;;;;;;14.40;5.03;;;9.10;99.90;;;;;;4974081;28;20184;-87
2022/11/05 09:49:03;;;;;;;8.23;3.77;;;9.20;99.90;;;;;;4973700;28;20211;-88
2022/11/05 09:51:30;;;;;;;8.30;4.40;;;9.30;99.90;;;;;;4973550;28;20203;-89
2022/11/05 09:53:58;;;;;;;10.10;4.37;;;9.30;99.90;;;;;;4974199;28;20180;-89
2022/11/05 09:56:28;;;;;;;11.43;5.20;;;9.40;99.90;;;;;;4973059;28;20260;-87
2022/11/05 09:59:40;;;;;;;11.93;4.38;;;9.40;99.90;;;;;;4973575;28;20268;-90
2022/11/05 10:02:32;;;;;;;11.50;4.55;;;9.40;99.90;;;;;;4973466;28;20180;-90
2022/11/05 10:05:04;;;;;;;11.65;4.38;;;9.40;99.90;;;;;;4986072;28;20300;-90
2022/11/05 10:07:53;;;;;;;10.23;3.95;;;9.50;99.90;;;;;;4973473;28;20200;-89
2022/11/05 10:10:37;;;;;;;11.40;4.03;;;9.50;99.90;;;;;;4969294;28;20205;-88
2022/11/05 10:13:43;;;;;;;11.73;4.13;;;9.70;99.90;;;;;;4970742;28;20188;-89
2022/11/05 10:16:35;;;;;;;15.05;5.03;;;9.70;99.90;;;;;;4972173;28;20724;-88
2022/11/05 10:19:23;;;;;;;11.18;4.25;;;9.90;99.90;;;;;;4991747;28;20191;-89
2022/11/05 10:21:49;;;;;;;18.25;4.25;;;9.90;99.90;;;;;;4990820;28;20202;-88
2022/11/05 10:24:18;;;;;;;6.47;3.97;;;10.00;99.90;;;;;;4991637;28;20180;-87
2022/11/05 10:26:50;;;;;;;11.73;4.13;;;10.00;99.90;;;;;;4992246;28;20211;-89
2022/11/05 10:29:28;;;;;;;9.70;4.47;;;10.00;99.90;;;;;;4993074;28;20202;-88
2022/11/05 10:31:55;;;;;;;11.18;3.90;;;10.10;99.90;;;;;;4976242;28;20189;-88
2022/11/05 10:34:25;;;;;;;10.05;4.35;;;10.20;99.90;;;;;;4984420;28;20204;-87
2022/11/05 10:36:53;;;;;;;8.70;3.90;;;10.20;99.90;;;;;;4972979;28;20243;-88
2022/11/05 10:39:20;;;;;;;7.68;3.70;;;10.20;99.90;;;;;;4973564;28;20184;-88
2022/11/05 10:42:07;;;;;;;13.05;4.57;;;10.30;99.90;;;;;;4973128;28;20222;-90
2022/11/05 10:44:36;;;;;;;9.45;4.00;;;10.30;99.90;;;;;;4989088;28;20660;-88
2022/11/05 10:47:14;;;;;;;9.85;4.30;;;10.40;99.90;;;;;;4974815;28;20204;-89
2022/11/05 10:49:59;;;;;;;6.43;3.60;;;10.30;99.90;;;;;;4973351;28;20173;-88
2022/11/05 10:52:54;;;;;;;9.07;4.15;;;10.30;99.90;;;;;;4971935;28;20660;-89
2022/11/05 10:55:35;;;;;;;15.38;4.57;;;10.30;99.90;;;;;;4972649;28;20200;-88
2022/11/05 10:58:16;;;;;;;10.38;4.03;;;10.40;99.90;;;;;;4973326;28;20586;-88
2022/11/05 11:00:45;;;;;;;7.88;4.10;;;10.50;99.90;;;;;;4965737;28;20196;-88
2022/11/05 11:03:33;;;;;;;12.73;4.30;;;10.50;99.90;;;;;;4969290;28;20547;-90
2022/11/05 11:06:06;;;;;;;8.68;3.83;;;10.60;99.90;;;;;;4959002;28;20177;-87
2022/11/05 11:08:35;;;;;;;9.63;3.78;;;10.60;99.90;;;;;;4968696;28;20181;-88
2022/11/05 11:11:11;;;;;;;12.27;3.75;;;10.40;99.90;;;;;;4969085;28;20207;-89
2022/11/05 11:13:56;;;;;;;7.53;3.35;;;10.50;99.90;;;;;;4968895;28;20191;-87
2022/11/05 11:16:24;;;;;;;9.23;4.05;;;10.50;99.90;;;;;;4959912;28;20192;-88
2022/11/05 11:18:55;;;;;;;10.05;3.95;;;10.60;99.90;;;;;;4991421;28;20180;-87
2022/11/05 11:21:22;;;;;;;8.95;3.63;;;10.80;99.90;;;;;;4991437;28;20199;-89
2022/11/05 11:23:54;;;;;;;8.10;3.45;;;10.80;99.90;;;;;;4991687;28;20270;-88
2022/11/05 11:26:20;;;;;;;6.50;3.13;;;10.70;99.90;;;;;;4984231;28;20192;-89
2022/11/05 11:28:55;;;;;;;8.13;3.60;;;10.50;99.90;;;;;;4972181;28;20157;-89
2022/11/05 11:31:24;;;;;;;9.75;3.65;;;10.40;99.90;;;;;;4988070;28;20172;-88
2022/11/05 11:34:27;;;;;;;7.93;3.83;;;10.40;99.90;;;;;;4973369;28;20238;-88
2022/11/05 11:36:57;;;;;;;7.57;3.22;;;10.40;99.90;;;;;;4971687;28;20239;-88
2022/11/05 11:39:26;;;;;;;8.73;3.35;;;10.70;99.90;;;;;;4988032;28;20204;-90
2022/11/05 11:41:54;;;;;;;13.43;4.30;;;10.80;99.90;;;;;;4982054;28;20622;-89
2022/11/05 11:44:28;;;;;;;13.23;3.67;;;10.90;99.90;;;;;;4953745;29;20185;-87
2022/11/05 11:47:02;;;;;;;6.80;3.75;;;11.10;99.90;;;;;;4984134;28;20354;-88
2022/11/05 11:49:50;;;;;;;10.85;4.05;;;11.20;99.90;;;;;;4992408;28;20217;-88
2022/11/05 11:52:36;;;;;;;5.80;3.38;;;11.10;99.90;;;;;;4992370;28;20164;-88
2022/11/05 11:55:10;;;;;;;7.57;3.63;;;11.00;99.90;;;;;;4999672;28;20578;-88
2022/11/05 11:57:53;;;;;;;7.10;3.30;;;11.10;99.90;;;;;;4960432;28;20197;-89
2022/11/05 12:00:22;;;;;;;5.80;3.22;;;11.10;99.90;;;;;;4979152;28;20359;-89
2022/11/05 12:03:02;;;;;;;6.68;3.28;;;11.00;99.90;;;;;;4973528;28;20638;-88
2022/11/05 12:05:31;;;;;;;7.82;3.67;;;10.90;99.90;;;;;;4960153;28;20267;-88
2022/11/05 12:08:23;;;;;;;8.68;3.15;;;10.90;99.90;;;;;;4963987;28;20204;-90
2022/11/05 12:11:01;;;;;;;7.90;3.20;;;11.00;99.90;;;;;;4953489;28;20268;-89
2022/11/05 12:13:50;;;;;;;11.10;3.28;;;10.90;99.90;;;;;;4978664;28;20188;-88
2022/11/05 12:16:38;;;;;;;6.53;3.28;;;10.90;99.90;;;;;;4961662;28;20196;-88
2022/11/05 12:19:37;;;;;;;5.30;2.97;;;11.10;99.90;;;;;;4979628;28;20665;-88
2022/11/05 12:22:15;;;;;;;6.88;3.10;;;11.30;99.90;;;;;;4966380;28;20192;-88
2022/11/05 12:25:14;;;;;;;5.75;3.03;;;11.20;99.90;;;;;;4983184;28;20177;-88
2022/11/05 12:28:08;;;;;;;7.55;3.10;;;11.10;99.90;;;;;;4985039;28;20299;-87
2022/11/05 12:31:05;;;;;;;10.43;3.22;;;11.10;99.90;;;;;;4987599;28;20177;-88
2022/11/05 12:33:52;;;;;;;5.07;3.10;;;11.10;99.90;;;;;;4944856;28;20660;-88
2022/11/05 12:36:49;;;;;;;11.55;3.17;;;11.20;99.90;;;;;;4981602;28;20267;-88
2022/11/05 12:39:50;;;;;;;8.80;3.25;;;11.30;99.90;;;;;;4978797;28;20179;-87
2022/11/05 12:42:18;;;;;;;6.38;2.60;;;11.40;99.90;;;;;;4982275;28;20187;-88
2022/11/05 12:45:07;;;;;;;5.25;3.10;;;11.50;99.90;;;;;;4964439;28;20184;-89
2022/11/05 12:48:07;;;;;;;7.65;3.03;;;11.60;99.90;;;;;;4995293;28;20215;-88
2022/11/05 12:51:02;;;;;;;7.40;3.38;;;11.40;99.90;;;;;;4973278;28;20185;-90
2022/11/05 12:53:49;;;;;;;5.25;3.13;;;11.50;99.90;;;;;;4955215;28;20732;-89
2022/11/05 12:56:24;;;;;;;7.00;3.65;;;11.40;99.90;;;;;;4974083;28;20219;-89
2022/11/05 12:59:21;;;;;;;6.38;3.58;;;11.40;99.90;;;;;;4975176;28;20187;-89
2022/11/05 13:01:52;;;;;;;7.75;3.58;;;11.20;99.90;;;;;;4974725;28;20228;-88
2022/11/05 13:04:52;;;;;;;7.63;3.60;;;11.30;99.90;;;;;;4971550;28;20267;-89
2022/11/05 13:07:28;;;;;;;8.63;3.75;;;11.30;99.90;;;;;;4987542;28;20555;-88
2022/11/05 13:10:06;;;;;;;8.27;3.50;;;11.20;99.90;;;;;;4984801;28;20181;-90
2022/11/05 13:12:37;;;;;;;7.47;3.33;;;11.30;99.90;;;;;;4990015;28;20206;-89
2022/11/05 13:15:25;;;;;;;7.78;3.65;;;11.40;99.90;;;;;;4988680;28;20177;-89
2022/11/05 13:18:13;;;;;;;7.47;3.13;;;11.20;99.90;;;;;;4989827;28;20239;-89
2022/11/05 13:20:45;;;;;;;8.02;3.45;;;11.10;99.90;;;;;;4973008;28;20212;-89
2022/11/05 13:23:45;;;;;;;8.20;3.58;;;11.10;99.90;;;;;;4973556;28;20200;-88
2022/11/05 13:26:30;;;;;;;6.90;3.20;;;11.20;99.90;;;;;;4964215;28;20197;-88
2022/11/05 13:29:00;;;;;;;8.85;3.70;;;11.40;99.90;;;;;;4954416;28;20181;-88
2022/11/05 13:31:35;;;;;;;6.43;3.10;;;11.60;99.90;;;;;;4965238;28;20554;-90
2022/11/05 13:34:08;;;;;;;10.38;3.63;;;11.80;99.90;;;;;;4973186;28;20172;-89
2022/11/05 13:39:36;;;;;;;8.88;3.30;;;11.90;99.90;;;;;;4991747;28;20198;-88
2022/11/05 13:42:32;;;;;;;5.03;2.80;;;11.90;99.90;;;;;;4992444;28;20176;-88
2022/11/05 13:44:58;;;;;;;5.93;2.92;;;12.10;99.90;;;;;;4992623;28;20518;-88
2022/11/05 13:47:46;;;;;;;5.10;3.55;;;12.20;99.90;;;;;;4991282;28;20291;-88
2022/11/05 13:50:26;;;;;;;6.53;3.38;;;12.10;99.90;;;;;;4992153;28;20172;-89
2022/11/05 13:53:29;;;;;;;7.22;3.00;;;12.30;99.90;;;;;;4992505;28;20206;-90
2022/11/05 13:56:00;;;;;;;4.72;2.50;;;12.30;99.90;;;;;;4993677;28;20247;-89
2022/11/05 13:58:50;;;;;;;7.70;2.53;;;12.10;99.90;;;;;;4992252;28;20331;-88
2022/11/05 14:01:56;;;;;;;6.43;2.97;;;11.90;99.90;;;;;;4992215;28;20200;-88